Impacts TAF Board
For situational awareness. Not to be used for flight planning purposes.
IDs:

KLVS - Las Vegas Muni, NM, US

Issued at 1120 UTC 30 Oct 2020
Updated at 1532 UTC 30 Oct 2020
Potential Impact None Slight Moderate High
Time1453Z 30/16Z 30/17Z 30/18Z 30/19Z 30/20Z 30/21Z 30/22Z 30/23Z 31/00Z 31/01Z 31/02Z 31/03Z 31/04Z>>
Type OBS PRVL PRVL PRVL PRVL PRVL PRVL PRVL PRVL PRVL PRVL PRVL PRVL PRVL
VIS 10 >6 >6 >6 >6 >6 >6 >6 >6 >6 >6 >6 >6 >6
CIG -- -- -- -- -- -- -- -- -- -- -- -- -- --
Cover CLR FEW FEW SCT SCT SCT SCT SCT SCT SCT SCT SCT SCT SCT
FltCat VFR VFR VFR VFR VFR VFR VFR VFR VFR VFR VFR VFR VFR VFR
WX -- -- -- -- -- -- -- -- -- -- -- -- -- --
WDir VRB 20 20 200 200 200 200 200 200 200 200 200 200 200
WSpd 0 6 6 12 12 12 12 12 12 12 12 12 12 12
WGst -- -- -- -- -- -- -- -- -- -- -- -- -- --
Raw TAF
KLVS 301120Z 3012/3112 02006KT P6SM FEW250
  FM301800 20012KT P6SM SCT250


Raw METAR
KLVS 301453Z AUTO 00000KT 10SM CLR 06/M03 A3031 RMK AO2 SLP228 T00561028 53007
KLVS 301353Z AUTO 36005KT 10SM CLR 03/M04 A3030 RMK AO2 SLP233 T00281039
KLVS 301253Z AUTO 31003KT 10SM CLR 04/M04 A3029 RMK AO2 SLP226 T00391044

METAR Board
Radar Display
Forecast Discussion
For situational awareness. Not to be used for flight planning purposes.